createdAt,value
2019-04-03T00:01:12.806Z,93.30
2019-04-03T00:03:54.610Z,93.30
2019-04-03T00:06:36.521Z,93.40
2019-04-03T00:09:18.723Z,93.60
2019-04-03T00:12:00.944Z,93.70
2019-04-03T00:14:43.403Z,93.70
2019-04-03T00:17:26.845Z,93.80
2019-04-03T00:20:08.775Z,93.70
2019-04-03T00:22:51.910Z,93.80
2019-04-03T00:25:34.112Z,94.00
2019-04-03T00:28:16.066Z,94.20
2019-04-03T00:30:58.256Z,94.30
2019-04-03T00:33:40.478Z,94.30
2019-04-03T00:36:23.307Z,94.40
2019-04-03T00:39:06.637Z,94.10
2019-04-03T00:41:49.041Z,94.10
2019-04-03T00:44:31.308Z,94.30
2019-04-03T00:47:13.444Z,94.40
2019-04-03T00:49:56.890Z,94.30
2019-04-03T00:52:39.005Z,94.20
2019-04-03T00:55:20.936Z,94.10
2019-04-03T00:58:02.931Z,94.30
2019-04-03T01:00:45.512Z,94.20
2019-04-03T01:03:28.262Z,94.20
2019-04-03T01:06:10.636Z,94.40
2019-04-03T01:08:52.959Z,94.50
2019-04-03T01:11:34.817Z,94.50
2019-04-03T01:14:16.720Z,94.70
2019-04-03T01:16:59.300Z,94.70
2019-04-03T01:19:41.280Z,94.60
2019-04-03T01:22:23.659Z,94.60
2019-04-03T01:25:08.389Z,94.60
2019-04-03T01:27:49.283Z,94.70
2019-04-03T01:30:31.383Z,94.60
2019-04-03T01:33:16.108Z,94.60
2019-04-03T01:35:57.463Z,94.80
2019-04-03T01:38:39.533Z,94.70
2019-04-03T01:41:21.712Z,94.70
2019-04-03T01:44:03.513Z,94.60
2019-04-03T01:46:45.706Z,94.60
2019-04-03T01:49:28.402Z,94.60
2019-04-03T01:52:10.794Z,94.60
2019-04-03T01:54:53.389Z,94.70
2019-04-03T01:57:36.659Z,94.80
2019-04-03T02:00:19.581Z,94.90
2019-04-03T02:03:02.134Z,95.00
2019-04-03T02:05:44.622Z,94.90
2019-04-03T02:08:26.558Z,94.90
2019-04-03T02:11:08.296Z,94.60
2019-04-03T02:13:51.336Z,94.80
2019-04-03T02:16:33.541Z,94.60
2019-04-03T02:19:16.074Z,94.70
2019-04-03T02:21:58.465Z,94.80
2019-04-03T02:24:41.114Z,94.80
2019-04-03T02:27:23.518Z,94.80
2019-04-03T02:30:05.885Z,95.10
2019-04-03T02:32:48.415Z,95.50
2019-04-03T02:35:30.269Z,95.70
2019-04-03T02:38:12.834Z,95.90
2019-04-03T02:40:55.099Z,95.70
2019-04-03T02:43:37.383Z,95.50
2019-04-03T02:46:19.465Z,96.00
2019-04-03T02:49:01.428Z,96.50
2019-04-03T02:51:43.920Z,96.20
2019-04-03T02:54:25.770Z,96.20
2019-04-03T02:57:07.787Z,96.00
2019-04-03T02:59:49.950Z,96.20
2019-04-03T03:02:32.199Z,96.10
2019-04-03T03:05:14.140Z,96.40
2019-04-03T03:07:56.281Z,96.30
2019-04-03T03:10:38.357Z,96.30
2019-04-03T03:13:20.519Z,96.20
2019-04-03T03:16:02.671Z,96.30
2019-04-03T03:18:44.690Z,96.20
2019-04-03T03:21:27.282Z,96.60
2019-04-03T03:24:09.426Z,96.40
2019-04-03T03:26:51.530Z,96.10
2019-04-03T03:29:33.517Z,95.90
2019-04-03T03:32:21.262Z,95.90
2019-04-03T03:35:10.912Z,96.20
2019-04-03T03:37:43.958Z,96.30
2019-04-03T03:40:26.049Z,96.60
2019-04-03T03:43:07.763Z,96.80
2019-04-03T03:45:52.507Z,96.80
2019-04-03T03:48:33.503Z,96.90
2019-04-03T03:51:16.035Z,96.90
2019-04-03T03:53:58.662Z,97.00
2019-04-03T03:56:40.581Z,97.00
2019-04-03T03:59:23.041Z,97.00
2019-04-03T04:02:06.132Z,96.90
2019-04-03T04:04:49.244Z,97.00
2019-04-03T04:07:31.449Z,97.10
2019-04-03T04:10:13.479Z,97.00
2019-04-03T04:12:56.260Z,97.10
2019-04-03T04:15:38.290Z,97.00
2019-04-03T04:18:23.229Z,97.10
2019-04-03T04:21:04.076Z,96.90
2019-04-03T04:23:46.455Z,97.30
2019-04-03T04:26:29.886Z,97.30
2019-04-03T04:29:13.052Z,97.30
2019-04-03T04:31:55.116Z,97.40
2019-04-03T04:34:37.196Z,97.40
2019-04-03T04:37:19.770Z,97.50
2019-04-03T04:40:01.747Z,97.60
2019-04-03T04:42:43.832Z,97.70
2019-04-03T04:45:26.189Z,97.60
2019-04-03T04:48:08.623Z,97.50
2019-04-03T04:50:50.720Z,97.60
2019-04-03T04:53:33.044Z,97.50
2019-04-03T04:56:15.257Z,97.30
2019-04-03T04:58:57.673Z,97.50
2019-04-03T05:01:39.739Z,97.40
2019-04-03T05:04:24.822Z,97.20
2019-04-03T05:07:06.036Z,97.20
2019-04-03T05:09:48.865Z,97.20
2019-04-03T05:12:30.470Z,97.20
2019-04-03T05:15:12.475Z,97.30
2019-04-03T05:17:55.799Z,97.30
2019-04-03T05:20:38.050Z,97.30
2019-04-03T05:23:20.223Z,97.20
2019-04-03T05:26:02.698Z,97.30
2019-04-03T05:28:55.680Z,97.00
2019-04-03T05:31:27.540Z,97.10
2019-04-03T05:40:47.173Z,96.80
2019-04-03T05:53:06.106Z,96.80
2019-04-03T05:59:32.517Z,96.80
2019-04-03T06:12:24.699Z,96.70
2019-04-03T06:15:09.287Z,96.70
2019-04-03T06:17:51.265Z,96.70
2019-04-03T06:20:33.002Z,96.70
2019-04-03T06:26:37.794Z,96.90
2019-04-03T06:29:49.729Z,96.90
2019-04-03T06:39:22.888Z,97.20
2019-04-03T06:42:32.033Z,97.30
2019-04-03T06:45:21.784Z,97.20
2019-04-03T06:48:30.810Z,97.20
2019-04-03T06:51:40.032Z,97.10
2019-04-03T06:54:50.541Z,97.30
2019-04-03T07:00:50.335Z,97.00
2019-04-03T07:04:00.836Z,97.10
2019-04-03T07:13:11.459Z,96.90
2019-04-03T07:15:55.748Z,97.00
2019-04-03T07:18:37.616Z,96.70
2019-04-03T07:21:22.136Z,96.80
2019-04-03T07:24:03.399Z,96.80
2019-04-03T07:26:46.016Z,96.60
2019-04-03T07:29:28.491Z,96.40
2019-04-03T07:32:10.696Z,96.30
2019-04-03T07:34:53.367Z,96.20
2019-04-03T07:37:35.499Z,96.10
2019-04-03T07:40:18.702Z,96.10
2019-04-03T07:43:01.041Z,96.00
2019-04-03T07:45:44.024Z,95.80
2019-04-03T07:48:26.473Z,95.70
2019-04-03T07:51:08.903Z,95.70
2019-04-03T07:53:51.622Z,95.70
2019-04-03T07:56:33.641Z,95.50
2019-04-03T07:59:15.480Z,95.30
2019-04-03T08:01:58.020Z,95.50
2019-04-03T08:04:40.233Z,95.30
2019-04-03T08:07:22.830Z,95.00
2019-04-03T08:10:05.664Z,95.40
2019-04-03T08:12:47.732Z,95.20
2019-04-03T08:15:30.111Z,95.50
2019-04-03T08:18:12.039Z,95.60
2019-04-03T08:20:55.121Z,95.40
2019-04-03T08:23:38.113Z,95.80
2019-04-03T08:26:20.095Z,95.40
2019-04-03T08:29:02.894Z,95.30
2019-04-03T08:31:48.246Z,95.60
2019-04-03T08:34:30.883Z,96.40
2019-04-03T08:37:12.070Z,96.20
2019-04-03T08:39:57.225Z,95.70
2019-04-03T08:42:37.504Z,96.60
2019-04-03T08:45:21.163Z,96.00
2019-04-03T08:48:05.946Z,96.00
2019-04-03T08:50:47.595Z,95.40
2019-04-03T08:53:30.017Z,95.90
2019-04-03T08:56:12.723Z,96.10
2019-04-03T08:58:54.866Z,95.70
2019-04-03T09:01:38.223Z,95.70
2019-04-03T09:04:20.397Z,95.60
2019-04-03T09:07:02.106Z,95.90
2019-04-03T09:09:44.575Z,95.20
2019-04-03T09:12:27.148Z,94.60
2019-04-03T09:15:10.289Z,94.60
2019-04-03T09:17:52.682Z,94.30
2019-04-03T09:20:36.064Z,94.10
2019-04-03T09:23:18.782Z,94.40
2019-04-03T09:26:02.583Z,95.70
2019-04-03T09:28:44.495Z,95.90
2019-04-03T09:31:26.902Z,96.00
2019-04-03T09:34:08.886Z,95.40
2019-04-03T09:36:51.188Z,94.40
2019-04-03T09:39:33.510Z,94.30
2019-04-03T09:42:15.590Z,95.30
2019-04-03T09:44:57.411Z,95.20
2019-04-03T09:47:39.425Z,95.30
2019-04-03T09:50:22.595Z,95.20
2019-04-03T09:53:05.774Z,94.90
2019-04-03T09:55:48.339Z,94.20
2019-04-03T09:58:30.740Z,94.00
2019-04-03T10:01:15.735Z,94.20
2019-04-03T10:03:56.824Z,95.40
2019-04-03T10:06:40.676Z,95.10
2019-04-03T10:09:23.098Z,95.30
2019-04-03T10:12:05.466Z,94.90
2019-04-03T10:14:47.614Z,95.60
2019-04-03T10:17:29.643Z,94.70
2019-04-03T10:20:11.407Z,94.50
2019-04-03T10:22:53.995Z,94.10
2019-04-03T10:25:38.033Z,94.40
2019-04-03T10:28:20.082Z,94.90
2019-04-03T10:31:02.066Z,95.10
2019-04-03T10:33:44.787Z,95.20
2019-04-03T10:36:27.368Z,95.50
2019-04-03T10:39:09.430Z,95.30
2019-04-03T10:41:52.113Z,94.60
2019-04-03T10:44:34.218Z,94.90
2019-04-03T10:47:16.099Z,93.60
2019-04-03T10:49:57.993Z,93.30
2019-04-03T10:52:40.167Z,95.30
2019-04-03T10:55:22.967Z,96.20
2019-04-03T10:58:06.865Z,96.60
2019-04-03T11:00:49.317Z,96.50
2019-04-03T11:03:31.990Z,96.10
2019-04-03T11:06:14.685Z,96.40
2019-04-03T11:08:56.477Z,96.10
2019-04-03T11:11:38.638Z,97.80
2019-04-03T11:14:21.019Z,97.50
2019-04-03T11:17:02.820Z,97.50
2019-04-03T11:19:44.868Z,97.20
2019-04-03T11:22:39.191Z,97.70
2019-04-03T11:25:13.992Z,96.90
2019-04-03T11:27:54.231Z,96.50
2019-04-03T11:30:36.346Z,97.10
2019-04-03T11:33:18.011Z,95.90
2019-04-03T11:35:58.731Z,94.60
2019-04-03T11:38:48.334Z,96.30
2019-04-03T11:48:06.417Z,96.70
2019-04-03T11:54:29.741Z,97.60
2019-04-03T11:57:40.200Z,98.30
2019-04-03T12:06:58.608Z,96.60
2019-04-03T12:09:40.467Z,96.10
2019-04-03T12:12:22.789Z,96.30
2019-04-03T12:15:04.847Z,97.40
2019-04-03T12:17:46.622Z,96.90
2019-04-03T12:20:28.549Z,96.80
2019-04-03T12:23:10.983Z,97.70
2019-04-03T12:25:52.867Z,97.20
2019-04-03T12:28:35.672Z,97.20
2019-04-03T12:31:18.159Z,98.20
2019-04-03T12:34:04.461Z,97.60
2019-04-03T12:36:46.149Z,96.80
2019-04-03T12:39:28.808Z,96.00
2019-04-03T12:42:11.420Z,96.70
2019-04-03T12:44:54.708Z,97.70
2019-04-03T12:47:37.143Z,96.80
2019-04-03T12:50:19.594Z,97.00
2019-04-03T12:53:01.742Z,97.10
2019-04-03T12:55:43.735Z,97.90
2019-04-03T12:58:25.821Z,96.80
2019-04-03T13:01:07.494Z,97.40
2019-04-03T13:03:49.495Z,97.90
2019-04-03T13:06:31.948Z,96.60
2019-04-03T13:09:14.125Z,96.40
2019-04-03T13:11:56.346Z,96.30
2019-04-03T13:14:38.553Z,96.90
2019-04-03T13:17:20.619Z,96.70
2019-04-03T13:20:05.620Z,95.50
2019-04-03T13:22:47.538Z,96.20
2019-04-03T13:25:29.805Z,95.70
2019-04-03T13:28:12.104Z,96.00
2019-04-03T13:30:54.268Z,97.30
2019-04-03T13:33:38.722Z,97.60
2019-04-03T13:36:23.520Z,97.60
2019-04-03T13:39:06.470Z,97.60
2019-04-03T13:41:49.297Z,97.40
2019-04-03T13:44:31.830Z,97.90
2019-04-03T13:47:14.353Z,97.40
2019-04-03T13:49:56.477Z,97.10
2019-04-03T13:52:42.313Z,96.20
2019-04-03T13:55:22.353Z,97.30
2019-04-03T13:58:04.599Z,96.90
2019-04-03T14:00:57.844Z,97.10
2019-04-03T14:03:31.008Z,98.30
2019-04-03T14:06:13.650Z,98.40
2019-04-03T14:08:56.376Z,98.20
2019-04-03T14:11:38.945Z,98.30
2019-04-03T14:14:21.194Z,97.40
2019-04-03T14:17:05.488Z,96.80
2019-04-03T14:19:50.892Z,96.30
2019-04-03T14:22:31.581Z,96.90
2019-04-03T14:25:21.007Z,97.40
2019-04-03T14:27:59.897Z,97.10
2019-04-03T14:30:43.820Z,98.30
2019-04-03T14:33:26.078Z,98.40
2019-04-03T14:36:08.451Z,98.10
2019-04-03T14:38:50.518Z,98.30
2019-04-03T14:41:34.992Z,98.10
2019-04-03T14:44:15.909Z,98.40
2019-04-03T14:46:58.287Z,98.10
2019-04-03T14:49:40.870Z,98.40
2019-04-03T14:52:23.991Z,98.70
2019-04-03T14:55:16.444Z,99.00
2019-04-03T14:57:53.758Z,98.90
2019-04-03T15:00:34.705Z,98.90
2019-04-03T15:03:17.134Z,99.20
2019-04-03T15:05:59.571Z,98.80
2019-04-03T15:08:41.741Z,98.90
2019-04-03T15:11:24.128Z,98.40
2019-04-03T15:14:06.343Z,98.50
2019-04-03T15:16:48.715Z,98.50
2019-04-03T15:19:31.211Z,99.10
2019-04-03T15:22:13.283Z,99.10
2019-04-03T15:24:55.978Z,98.90
2019-04-03T15:27:38.226Z,98.80
2019-04-03T15:30:20.573Z,98.90
2019-04-03T15:33:03.487Z,99.20
2019-04-03T15:35:46.092Z,99.00
2019-04-03T15:38:28.255Z,98.70
2019-04-03T15:41:10.409Z,98.60
2019-04-03T15:43:52.350Z,98.60
2019-04-03T15:46:35.061Z,98.70
2019-04-03T15:49:17.553Z,98.50
2019-04-03T15:52:00.238Z,98.10
2019-04-03T15:54:42.224Z,97.90
2019-04-03T15:57:24.779Z,97.70
2019-04-03T16:00:07.546Z,97.60
2019-04-03T16:02:49.913Z,97.80
2019-04-03T16:05:35.657Z,97.70
2019-04-03T16:08:16.759Z,98.10
2019-04-03T16:10:59.374Z,98.30
2019-04-03T16:13:41.694Z,98.20
2019-04-03T16:16:25.846Z,98.30
2019-04-03T16:19:10.995Z,97.90
2019-04-03T16:21:56.262Z,97.60
2019-04-03T16:24:37.375Z,97.60
2019-04-03T16:27:19.480Z,97.60
2019-04-03T16:30:01.217Z,97.90
2019-04-03T16:32:43.463Z,97.20
2019-04-03T16:35:25.201Z,96.70
2019-04-03T16:38:07.195Z,96.50
2019-04-03T16:40:49.241Z,96.20
2019-04-03T16:43:31.193Z,96.60
2019-04-03T16:46:13.831Z,97.40
2019-04-03T16:48:56.631Z,97.20
2019-04-03T16:51:39.217Z,97.80
2019-04-03T16:54:21.295Z,97.60
2019-04-03T16:57:03.794Z,97.90
2019-04-03T16:59:46.128Z,98.30
2019-04-03T17:02:29.778Z,98.40
2019-04-03T17:05:12.590Z,96.40
2019-04-03T17:07:55.141Z,95.90
2019-04-03T17:10:40.370Z,95.40
2019-04-03T17:13:22.821Z,94.40
2019-04-03T17:16:04.937Z,94.30
2019-04-03T17:18:48.815Z,94.60
2019-04-03T17:21:36.801Z,94.90
2019-04-03T17:24:16.033Z,94.90
2019-04-03T17:26:59.574Z,95.70
2019-04-03T17:29:45.666Z,96.50
2019-04-03T17:32:28.932Z,96.80
2019-04-03T17:35:11.862Z,98.40
2019-04-03T17:37:54.817Z,98.80
2019-04-03T17:40:37.309Z,99.00
2019-04-03T17:43:19.984Z,99.70
2019-04-03T17:46:02.471Z,98.80
2019-04-03T17:48:44.796Z,99.90
2019-04-03T17:51:26.653Z,99.90
2019-04-03T17:54:08.530Z,99.90
2019-04-03T17:56:51.566Z,99.90
2019-04-03T17:59:33.502Z,99.90
2019-04-03T18:02:16.251Z,99.90
2019-04-03T18:04:58.232Z,98.50
2019-04-03T18:07:40.236Z,98.10
2019-04-03T18:10:22.139Z,98.30
2019-04-03T18:13:04.633Z,99.20
2019-04-03T18:15:46.645Z,98.00
2019-04-03T18:18:28.910Z,98.90
2019-04-03T18:21:13.078Z,99.00
2019-04-03T18:23:55.158Z,99.90
2019-04-03T18:26:37.646Z,99.70
2019-04-03T18:29:19.907Z,99.90
2019-04-03T18:32:02.195Z,99.80
2019-04-03T18:34:47.768Z,98.50
2019-04-03T18:37:29.353Z,99.00
2019-04-03T18:40:13.899Z,98.60
2019-04-03T18:42:56.091Z,98.60
2019-04-03T18:45:38.263Z,97.20
2019-04-03T18:48:20.387Z,97.40
2019-04-03T18:51:05.680Z,97.50
2019-04-03T18:53:46.519Z,97.70
2019-04-03T18:56:28.761Z,97.30
2019-04-03T18:59:11.366Z,97.50
2019-04-03T19:01:54.205Z,96.80
2019-04-03T19:04:37.687Z,97.10
2019-04-03T19:07:20.404Z,96.30
2019-04-03T19:10:07.209Z,96.50
2019-04-03T19:12:46.554Z,96.70
2019-04-03T19:15:29.064Z,96.40
2019-04-03T19:18:19.409Z,96.00
2019-04-03T19:20:55.001Z,96.10
2019-04-03T19:23:48.888Z,96.40
2019-04-03T19:26:21.321Z,96.00
2019-04-03T19:29:05.048Z,96.00
2019-04-03T19:31:46.987Z,95.80
2019-04-03T19:34:28.735Z,95.60
2019-04-03T19:37:11.383Z,95.40
2019-04-03T19:39:53.471Z,95.40
2019-04-03T19:42:35.487Z,95.50
2019-04-03T19:45:20.521Z,95.50
2019-04-03T19:48:00.758Z,95.20
2019-04-03T19:50:42.737Z,95.30
2019-04-03T19:53:25.219Z,95.40
2019-04-03T19:56:07.717Z,95.10
2019-04-03T19:58:49.707Z,95.20
2019-04-03T20:01:31.861Z,95.10
2019-04-03T20:04:15.759Z,94.90
2019-04-03T20:06:57.831Z,95.00
2019-04-03T20:09:40.300Z,94.80
2019-04-03T20:12:22.774Z,94.50
2019-04-03T20:15:05.426Z,95.00
2019-04-03T20:17:47.979Z,95.00
2019-04-03T20:20:33.380Z,95.00
2019-04-03T20:23:13.588Z,94.90
2019-04-03T20:25:55.878Z,94.80
2019-04-03T20:28:38.460Z,94.30
2019-04-03T20:31:20.317Z,94.60
2019-04-03T20:34:02.177Z,94.70
2019-04-03T20:36:44.564Z,94.70
2019-04-03T20:39:29.047Z,94.30
2019-04-03T20:42:11.751Z,94.50
2019-04-03T20:44:54.165Z,94.50
2019-04-03T20:47:36.832Z,94.40
2019-04-03T20:50:19.263Z,94.60
2019-04-03T20:53:01.008Z,94.20
2019-04-03T20:55:42.819Z,94.20
2019-04-03T20:58:25.016Z,94.50
2019-04-03T21:01:07.340Z,94.60
2019-04-03T21:03:49.202Z,94.50
2019-04-03T21:06:31.537Z,94.50
2019-04-03T21:09:13.483Z,94.30
2019-04-03T21:11:55.680Z,94.30
2019-04-03T21:14:37.653Z,94.20
2019-04-03T21:17:19.742Z,94.40
2019-04-03T21:20:02.212Z,94.20
2019-04-03T21:22:42.830Z,93.90
2019-04-03T21:28:47.300Z,93.70
2019-04-03T21:31:56.706Z,93.80
2019-04-03T21:38:21.565Z,93.70
2019-04-03T21:41:11.082Z,94.10
2019-04-03T21:54:03.060Z,94.10
2019-04-03T22:04:03.561Z,93.90
2019-04-03T22:07:12.599Z,94.10
2019-04-03T22:23:14.108Z,93.80
2019-04-03T22:26:23.177Z,93.60
2019-04-03T22:32:46.860Z,93.60
2019-04-03T22:48:28.163Z,93.40
2019-04-03T22:54:52.145Z,93.50
2019-04-03T23:00:50.205Z,93.80
2019-04-03T23:03:59.439Z,93.70
2019-04-03T23:20:02.312Z,93.80
2019-04-03T23:22:44.051Z,94.00
2019-04-03T23:25:25.831Z,93.90
2019-04-03T23:28:08.070Z,93.60
2019-04-03T23:30:52.268Z,93.50
2019-04-03T23:33:34.223Z,93.70
2019-04-03T23:36:16.279Z,93.70
2019-04-03T23:38:58.172Z,94.00
2019-04-03T23:41:40.071Z,94.00
2019-04-03T23:44:22.336Z,94.30
2019-04-03T23:47:04.549Z,94.60
2019-04-03T23:49:46.806Z,94.60
2019-04-03T23:52:29.982Z,94.80
2019-04-03T23:55:12.793Z,95.00
2019-04-03T23:57:54.814Z,95.20
